createdAt,value
2022-10-08T00:01:11.896Z,30.67
2022-10-08T00:03:41.463Z,32.60
2022-10-08T00:06:12.337Z,32.13
2022-10-08T00:08:43.022Z,29.70
2022-10-08T00:11:13.690Z,32.08
2022-10-08T00:13:42.451Z,27.23
2022-10-08T00:16:21.871Z,33.17
2022-10-08T00:18:51.152Z,31.83
2022-10-08T00:21:21.895Z,27.88
2022-10-08T00:23:50.493Z,30.02
2022-10-08T00:26:20.080Z,29.88
2022-10-08T00:28:47.299Z,36.25
2022-10-08T00:31:20.665Z,28.20
2022-10-08T00:33:56.321Z,30.08
2022-10-08T00:36:25.796Z,29.20
2022-10-08T00:39:03.449Z,37.22
2022-10-08T00:41:32.999Z,30.15
2022-10-08T00:44:23.643Z,33.97
2022-10-08T00:46:50.965Z,30.58
2022-10-08T00:49:22.116Z,37.40
2022-10-08T00:51:53.337Z,35.45
2022-10-08T00:54:21.769Z,31.38
2022-10-08T00:56:51.216Z,31.67
2022-10-08T00:59:18.629Z,36.40
2022-10-08T01:01:45.332Z,34.85
2022-10-08T01:04:13.702Z,29.23
2022-10-08T01:06:58.723Z,43.95
2022-10-08T01:09:44.083Z,34.45
2022-10-08T01:12:44.943Z,30.80
2022-10-08T01:15:34.995Z,33.58
2022-10-08T01:18:01.911Z,34.28
2022-10-08T01:20:40.313Z,35.15
2022-10-08T01:23:39.168Z,32.53
2022-10-08T01:26:08.645Z,31.65
2022-10-08T01:28:43.426Z,30.38
2022-10-08T01:31:19.102Z,36.78
2022-10-08T01:33:51.565Z,33.20
2022-10-08T01:36:21.239Z,31.38
2022-10-08T01:39:05.106Z,35.75
2022-10-08T01:41:33.335Z,31.00
2022-10-08T01:44:08.847Z,33.70
2022-10-08T01:49:10.650Z,34.08
2022-10-08T01:51:44.872Z,32.83
2022-10-08T01:54:16.848Z,36.78
2022-10-08T01:56:47.348Z,31.00
2022-10-08T01:59:27.797Z,30.17
2022-10-08T02:02:10.505Z,31.42
2022-10-08T02:04:37.918Z,34.08
2022-10-08T02:07:17.064Z,32.25
2022-10-08T02:09:47.348Z,32.22
2022-10-08T02:12:14.497Z,34.30
2022-10-08T02:14:46.288Z,34.80
2022-10-08T02:17:20.522Z,31.50
2022-10-08T02:19:55.825Z,35.08
2022-10-08T02:22:27.363Z,35.38
2022-10-08T02:25:05.123Z,35.40
2022-10-08T02:27:44.164Z,33.53
2022-10-08T02:30:12.911Z,32.38
2022-10-08T02:32:50.819Z,42.00
2022-10-08T02:35:37.080Z,29.95
2022-10-08T02:38:10.239Z,29.23
2022-10-08T02:40:41.553Z,37.30
2022-10-08T02:43:14.539Z,31.63
2022-10-08T02:45:49.294Z,34.65
2022-10-08T02:48:36.592Z,35.92
2022-10-08T02:51:09.274Z,33.10
2022-10-08T02:53:38.693Z,30.58
2022-10-08T02:56:14.559Z,31.88
2022-10-08T02:58:43.184Z,35.00
2022-10-08T03:01:15.513Z,37.40
2022-10-08T03:03:50.702Z,32.70
2022-10-08T03:06:18.490Z,38.25
2022-10-08T03:08:49.189Z,37.95
2022-10-08T03:11:16.727Z,32.70
2022-10-08T03:13:46.498Z,31.35
2022-10-08T03:16:16.574Z,38.00
2022-10-08T03:18:44.513Z,36.03
2022-10-08T03:21:14.913Z,34.40
2022-10-08T03:23:41.749Z,33.40
2022-10-08T03:26:08.636Z,36.78
2022-10-08T03:28:35.309Z,38.15
2022-10-08T03:31:06.534Z,36.78
2022-10-08T03:33:34.018Z,36.20
2022-10-08T03:36:00.760Z,36.80
2022-10-08T03:38:27.514Z,32.60
2022-10-08T03:40:56.693Z,38.95
2022-10-08T03:43:24.107Z,35.95
2022-10-08T03:45:52.631Z,42.97
2022-10-08T03:48:20.591Z,36.85
2022-10-08T03:50:55.648Z,41.83
2022-10-08T03:53:23.991Z,41.40
2022-10-08T03:55:51.164Z,34.80
2022-10-08T03:58:18.088Z,34.90
2022-10-08T04:00:45.077Z,39.05
2022-10-08T04:03:11.763Z,42.78
2022-10-08T04:05:38.485Z,39.45
2022-10-08T04:08:05.440Z,40.60
2022-10-08T04:10:32.078Z,40.30
2022-10-08T04:12:58.712Z,44.22
2022-10-08T04:15:25.695Z,39.80
2022-10-08T04:17:52.383Z,39.85
2022-10-08T04:20:19.049Z,42.50
2022-10-08T04:22:46.045Z,43.90
2022-10-08T04:25:12.969Z,39.50
2022-10-08T04:27:39.681Z,38.95
2022-10-08T04:30:07.441Z,43.13
2022-10-08T04:32:34.117Z,46.58
2022-10-08T04:35:00.776Z,44.03
2022-10-08T04:37:27.804Z,43.58
2022-10-08T04:39:54.544Z,44.38
2022-10-08T04:42:21.200Z,47.90
2022-10-08T04:44:47.911Z,46.63
2022-10-08T04:47:14.591Z,43.42
2022-10-08T04:49:41.351Z,42.55
2022-10-08T04:52:08.375Z,51.35
2022-10-08T04:54:35.050Z,50.78
2022-10-08T04:57:02.391Z,42.83
2022-10-08T04:59:29.169Z,47.53
2022-10-08T05:01:58.656Z,49.00
2022-10-08T05:04:25.428Z,46.53
2022-10-08T05:06:52.528Z,54.97
2022-10-08T05:09:19.272Z,52.60
2022-10-08T05:11:45.898Z,53.42
2022-10-08T05:14:12.977Z,58.75
2022-10-08T05:16:39.666Z,54.50
2022-10-08T05:19:06.476Z,55.20
2022-10-08T05:21:33.405Z,51.65
2022-10-08T05:24:06.712Z,57.20
2022-10-08T05:26:57.041Z,50.55
2022-10-08T05:29:22.729Z,52.08
2022-10-08T05:31:49.477Z,54.22
2022-10-08T05:34:16.332Z,51.88
2022-10-08T05:36:43.138Z,50.47
2022-10-08T05:39:10.859Z,51.90
2022-10-08T05:41:38.064Z,53.30
2022-10-08T05:44:06.348Z,50.47
2022-10-08T05:46:35.890Z,53.97
2022-10-08T05:49:04.896Z,50.58
2022-10-08T05:51:32.006Z,48.75
2022-10-08T05:54:00.007Z,51.90
2022-10-08T05:56:28.198Z,59.10
2022-10-08T05:58:54.896Z,51.38
2022-10-08T06:01:28.407Z,58.65
2022-10-08T06:03:57.417Z,51.13
2022-10-08T06:06:24.341Z,47.58
2022-10-08T06:08:56.040Z,51.45
2022-10-08T06:11:22.678Z,45.83
2022-10-08T06:13:53.595Z,49.20
2022-10-08T06:16:20.932Z,50.97
2022-10-08T06:18:47.828Z,44.10
2022-10-08T06:21:25.925Z,41.88
2022-10-08T06:23:55.075Z,48.13
2022-10-08T06:26:25.992Z,48.00
2022-10-08T06:28:53.230Z,45.05
2022-10-08T06:31:20.315Z,52.72
2022-10-08T06:33:47.207Z,50.65
2022-10-08T06:36:23.605Z,40.30
2022-10-08T06:38:51.979Z,41.78
2022-10-08T06:41:19.325Z,40.25
2022-10-08T06:43:46.125Z,37.60
2022-10-08T06:46:13.195Z,42.15
2022-10-08T06:48:40.251Z,41.60
2022-10-08T06:51:12.509Z,38.30
2022-10-08T06:53:39.912Z,37.60
2022-10-08T06:56:10.724Z,42.90
2022-10-08T06:58:38.417Z,32.55
2022-10-08T07:01:17.594Z,38.05
2022-10-08T07:03:48.323Z,34.20
2022-10-08T07:06:14.962Z,33.10
2022-10-08T07:08:41.939Z,39.40
2022-10-08T07:11:13.823Z,46.25
2022-10-08T07:13:41.156Z,50.50
2022-10-08T07:16:18.150Z,35.60
2022-10-08T07:18:49.092Z,37.58
2022-10-08T07:21:17.971Z,36.58
2022-10-08T07:23:45.454Z,33.70
2022-10-08T07:26:13.669Z,35.83
2022-10-08T07:28:44.346Z,35.55
2022-10-08T07:31:16.698Z,33.65
2022-10-08T07:33:43.574Z,43.58
2022-10-08T07:36:13.859Z,39.33
2022-10-08T07:38:40.752Z,37.70
2022-10-08T07:41:08.958Z,42.30
2022-10-08T07:43:37.095Z,45.78
2022-10-08T07:46:06.283Z,44.28
2022-10-08T07:48:34.223Z,43.00
2022-10-08T07:51:28.671Z,42.97
2022-10-08T07:54:00.210Z,38.88
2022-10-08T07:56:29.368Z,39.10
2022-10-08T07:58:56.071Z,35.65
2022-10-08T08:01:28.383Z,41.70
2022-10-08T08:03:58.111Z,43.10
2022-10-08T08:06:25.516Z,42.28
2022-10-08T08:08:52.682Z,43.20
2022-10-08T08:11:21.622Z,42.13
2022-10-08T08:13:48.786Z,40.97
2022-10-08T08:16:20.894Z,39.65
2022-10-08T08:18:50.658Z,40.63
2022-10-08T08:21:20.193Z,38.50
2022-10-08T08:23:49.823Z,43.30
2022-10-08T08:26:19.737Z,45.17
2022-10-08T08:28:52.115Z,35.75
2022-10-08T08:31:30.559Z,39.45
2022-10-08T08:34:03.781Z,40.25
2022-10-08T08:36:33.406Z,42.28
2022-10-08T08:39:00.742Z,39.47
2022-10-08T08:41:45.815Z,41.53
2022-10-08T08:44:28.280Z,45.17
2022-10-08T08:47:23.957Z,40.13
2022-10-08T08:50:21.572Z,43.13
2022-10-08T08:52:48.793Z,45.60
2022-10-08T08:55:18.490Z,50.60
2022-10-08T08:57:58.233Z,44.60
2022-10-08T09:00:33.671Z,42.80
2022-10-08T09:05:33.566Z,44.03
2022-10-08T09:08:34.040Z,47.45
2022-10-08T09:11:02.892Z,44.03
2022-10-08T09:13:48.642Z,46.17
2022-10-08T09:16:17.178Z,44.22
2022-10-08T09:18:49.257Z,43.80
2022-10-08T09:21:16.769Z,43.13
2022-10-08T09:23:44.355Z,46.45
2022-10-08T09:26:26.133Z,44.00
2022-10-08T09:28:52.806Z,44.25
2022-10-08T09:31:36.410Z,47.42
2022-10-08T09:34:17.883Z,48.22
2022-10-08T09:36:46.719Z,43.13
2022-10-08T09:39:23.692Z,53.30
2022-10-08T09:42:08.634Z,44.30
2022-10-08T09:44:50.726Z,44.50
2022-10-08T09:47:19.969Z,52.58
2022-10-08T09:50:01.469Z,45.67
2022-10-08T09:52:28.895Z,49.88
2022-10-08T09:55:02.024Z,45.35
2022-10-08T09:57:30.926Z,41.65
2022-10-08T10:00:01.223Z,47.03
2022-10-08T10:02:36.892Z,48.42
2022-10-08T10:05:17.922Z,49.40
2022-10-08T10:07:46.094Z,45.88
2022-10-08T10:10:28.739Z,51.05
2022-10-08T10:13:06.876Z,43.53
2022-10-08T10:16:09.366Z,48.00
2022-10-08T10:18:59.109Z,47.80
2022-10-08T10:21:30.163Z,42.60
2022-10-08T10:24:21.652Z,44.60
2022-10-08T10:26:53.280Z,46.97
2022-10-08T10:29:25.178Z,47.25
2022-10-08T10:32:02.633Z,45.38
2022-10-08T10:34:31.985Z,49.97
2022-10-08T10:37:03.487Z,40.97
2022-10-08T10:39:36.428Z,35.40
2022-10-08T10:42:35.321Z,46.75
2022-10-08T10:45:07.919Z,45.42
2022-10-08T10:47:34.587Z,48.67
2022-10-08T10:50:01.764Z,46.58
2022-10-08T10:52:49.883Z,43.30
2022-10-08T10:55:31.765Z,39.60
2022-10-08T10:57:58.506Z,43.63
2022-10-08T11:00:32.908Z,40.13
2022-10-08T11:03:10.520Z,40.83
2022-10-08T11:05:39.994Z,40.85
2022-10-08T11:08:44.134Z,41.45
2022-10-08T11:11:27.649Z,38.63
2022-10-08T11:14:37.866Z,38.03
2022-10-08T11:17:32.861Z,37.00
2022-10-08T11:20:40.095Z,37.03
2022-10-08T11:23:21.264Z,40.70
2022-10-08T11:26:24.912Z,36.40
2022-10-08T11:29:10.980Z,38.63
2022-10-08T11:31:43.501Z,32.33
2022-10-08T11:34:18.567Z,32.70
2022-10-08T11:36:55.339Z,31.83
2022-10-08T11:39:33.100Z,32.25
2022-10-08T11:42:30.983Z,35.92
2022-10-08T11:45:30.802Z,32.70
2022-10-08T11:48:00.086Z,35.83
2022-10-08T11:50:35.932Z,28.40
2022-10-08T11:53:14.171Z,32.25
2022-10-08T11:55:51.231Z,28.83
2022-10-08T11:58:28.263Z,33.60
2022-10-08T12:01:06.739Z,30.83
2022-10-08T12:03:40.118Z,34.80
2022-10-08T12:06:25.375Z,28.95
2022-10-08T12:11:40.493Z,27.45
2022-10-08T12:14:13.567Z,32.45
2022-10-08T12:16:55.347Z,30.92
2022-10-08T12:19:34.545Z,28.02
2022-10-08T12:22:06.996Z,22.23
2022-10-08T12:24:39.849Z,29.08
2022-10-08T12:27:21.577Z,27.55
2022-10-08T12:29:58.658Z,20.83
2022-10-08T12:32:39.504Z,20.52
2022-10-08T12:35:20.432Z,19.63
2022-10-08T12:38:14.316Z,28.20
2022-10-08T12:40:50.342Z,27.13
2022-10-08T12:43:38.912Z,33.10
2022-10-08T12:46:30.039Z,27.42
2022-10-08T12:49:06.278Z,30.98
2022-10-08T12:51:45.713Z,28.60
2022-10-08T12:54:25.294Z,30.98
2022-10-08T12:56:53.441Z,20.92
2022-10-08T12:59:23.277Z,32.10
2022-10-08T13:01:54.143Z,23.38
2022-10-08T13:04:24.014Z,23.40
2022-10-08T13:06:53.353Z,28.88
2022-10-08T13:09:30.611Z,20.42
2022-10-08T13:12:03.821Z,28.85
2022-10-08T13:14:37.851Z,23.80
2022-10-08T13:17:06.027Z,26.93
2022-10-08T13:19:40.718Z,21.77
2022-10-08T13:22:26.679Z,24.45
2022-10-08T13:24:53.766Z,30.67
2022-10-08T13:27:32.003Z,25.90
2022-10-08T13:30:01.020Z,26.52
2022-10-08T13:32:36.595Z,23.77
2022-10-08T13:35:05.556Z,30.92
2022-10-08T13:37:38.291Z,29.10
2022-10-08T13:40:19.362Z,29.63
2022-10-08T13:42:49.772Z,24.33
2022-10-08T13:45:27.669Z,21.92
2022-10-08T13:47:55.233Z,23.92
2022-10-08T13:50:23.141Z,28.58
2022-10-08T13:52:55.974Z,21.08
2022-10-08T13:55:28.122Z,31.80
2022-10-08T13:57:56.622Z,29.48
2022-10-08T14:00:23.977Z,27.95
2022-10-08T14:02:51.874Z,27.17
2022-10-08T14:05:22.875Z,33.83
2022-10-08T14:07:55.245Z,31.85
2022-10-08T14:10:22.327Z,29.20
2022-10-08T14:12:49.183Z,22.98
2022-10-08T14:15:17.400Z,27.00
2022-10-08T14:17:44.469Z,26.17
2022-10-08T14:20:12.381Z,41.10
2022-10-08T14:22:39.073Z,28.15
2022-10-08T14:25:18.061Z,28.33
2022-10-08T14:27:45.385Z,28.33
2022-10-08T14:30:13.818Z,31.60
2022-10-08T14:32:40.858Z,28.90
2022-10-08T14:35:08.109Z,25.48
2022-10-08T14:37:35.520Z,28.83
2022-10-08T14:40:04.111Z,28.27
2022-10-08T14:42:30.893Z,32.67
2022-10-08T14:44:57.892Z,32.58
2022-10-08T14:47:25.290Z,23.55
2022-10-08T14:49:52.407Z,23.67
2022-10-08T14:52:20.514Z,26.27
2022-10-08T14:54:47.308Z,31.58
2022-10-08T14:57:14.269Z,34.00
2022-10-08T14:59:41.322Z,23.40
2022-10-08T15:02:10.767Z,35.75
2022-10-08T15:04:38.027Z,36.35
2022-10-08T15:07:05.141Z,24.83
2022-10-08T15:09:31.971Z,23.23
2022-10-08T15:11:58.679Z,23.63
2022-10-08T15:14:25.545Z,22.48
2022-10-08T15:16:52.351Z,18.75
2022-10-08T15:19:23.558Z,23.92
2022-10-08T15:21:50.876Z,29.38
2022-10-08T15:24:17.795Z,29.23
2022-10-08T15:26:44.524Z,37.97
2022-10-08T15:29:11.796Z,24.67
2022-10-08T15:31:38.728Z,24.65
2022-10-08T15:34:05.539Z,28.75
2022-10-08T15:36:37.682Z,30.13
2022-10-08T15:39:11.730Z,26.90
2022-10-08T15:41:40.646Z,26.20
2022-10-08T15:44:18.775Z,27.95
2022-10-08T15:46:46.544Z,21.02
2022-10-08T15:49:13.254Z,20.10
2022-10-08T15:51:40.530Z,22.00
2022-10-08T15:54:07.747Z,20.17
2022-10-08T15:56:36.268Z,17.67
2022-10-08T15:59:03.735Z,21.58
2022-10-08T16:01:31.034Z,18.58
2022-10-08T16:03:58.878Z,22.55
2022-10-08T16:06:35.897Z,20.50
2022-10-08T16:09:03.014Z,21.98
2022-10-08T16:11:34.976Z,19.10
2022-10-08T16:14:08.358Z,17.77
2022-10-08T16:16:36.302Z,19.95
2022-10-08T16:19:05.337Z,21.73
2022-10-08T16:21:33.684Z,21.20
2022-10-08T16:24:01.410Z,24.83
2022-10-08T16:26:29.276Z,22.52
2022-10-08T16:28:59.090Z,25.80
2022-10-08T16:31:28.412Z,20.38
2022-10-08T16:34:00.471Z,28.70
2022-10-08T16:36:28.945Z,26.17
2022-10-08T16:38:56.145Z,32.08
2022-10-08T16:41:25.550Z,28.55
2022-10-08T16:43:54.453Z,28.27
2022-10-08T16:46:25.388Z,28.08
2022-10-08T16:48:58.024Z,27.88
2022-10-08T16:51:27.412Z,25.20
2022-10-08T16:53:56.226Z,27.30
2022-10-08T16:56:26.185Z,25.48
2022-10-08T16:58:54.386Z,23.77
2022-10-08T17:01:22.202Z,24.55
2022-10-08T17:03:50.285Z,20.83
2022-10-08T17:06:18.708Z,20.73
2022-10-08T17:08:45.756Z,23.60
2022-10-08T17:11:14.136Z,21.05
2022-10-08T17:13:52.439Z,19.75
2022-10-08T17:16:21.383Z,19.23
2022-10-08T17:18:51.111Z,26.42
2022-10-08T17:21:18.227Z,21.08
2022-10-08T17:23:45.227Z,26.50
2022-10-08T17:26:14.747Z,22.40
2022-10-08T17:28:43.889Z,22.05
2022-10-08T17:31:18.893Z,26.50
2022-10-08T17:33:46.044Z,24.00
2022-10-08T17:36:19.595Z,22.45
2022-10-08T17:38:48.608Z,24.90
2022-10-08T17:41:21.118Z,28.38
2022-10-08T17:43:49.037Z,25.67
2022-10-08T17:46:18.705Z,27.65
2022-10-08T17:48:46.573Z,25.45
2022-10-08T17:51:17.386Z,23.35
2022-10-08T17:53:44.875Z,23.60
2022-10-08T17:56:13.807Z,22.17
2022-10-08T17:58:40.691Z,22.67
2022-10-08T18:01:11.465Z,26.45
2022-10-08T18:03:39.435Z,26.35
2022-10-08T18:06:07.761Z,23.15
2022-10-08T18:08:35.261Z,26.85
2022-10-08T18:11:04.267Z,27.58
2022-10-08T18:13:30.961Z,22.85
2022-10-08T18:16:02.407Z,23.83
2022-10-08T18:18:29.212Z,23.20
2022-10-08T18:20:57.252Z,24.60
2022-10-08T18:23:24.792Z,25.27
2022-10-08T18:25:54.067Z,24.60
2022-10-08T18:28:22.155Z,25.20
2022-10-08T18:30:49.283Z,23.60
2022-10-08T18:33:16.049Z,24.02
2022-10-08T18:35:42.821Z,24.77
2022-10-08T18:38:09.702Z,26.20
2022-10-08T18:40:36.477Z,23.58
2022-10-08T18:43:03.179Z,24.58
2022-10-08T18:45:30.072Z,23.63
2022-10-08T18:47:57.494Z,24.77
2022-10-08T18:50:24.210Z,23.48
2022-10-08T18:52:51.007Z,27.95
2022-10-08T18:55:17.849Z,21.92
2022-10-08T18:57:44.515Z,31.10
2022-10-08T19:00:11.759Z,23.83
2022-10-08T19:02:38.683Z,24.50
2022-10-08T19:05:05.896Z,24.55
2022-10-08T19:07:32.523Z,32.33
2022-10-08T19:09:59.229Z,26.52
2022-10-08T19:12:25.999Z,29.75
2022-10-08T19:14:52.630Z,37.72
2022-10-08T19:17:19.357Z,31.63
2022-10-08T19:19:46.094Z,34.97
2022-10-08T19:22:12.889Z,27.88
2022-10-08T19:24:41.183Z,24.35
2022-10-08T19:27:08.088Z,26.05
2022-10-08T19:29:35.963Z,23.67
2022-10-08T19:32:02.754Z,23.02
2022-10-08T19:34:29.575Z,23.63
2022-10-08T19:36:56.820Z,23.55
2022-10-08T19:39:26.634Z,26.05
2022-10-08T19:41:53.623Z,23.73
2022-10-08T19:44:20.987Z,26.08
2022-10-08T19:46:48.604Z,22.67
2022-10-08T19:49:15.948Z,20.23
2022-10-08T19:51:43.083Z,18.05
2022-10-08T19:54:10.670Z,19.33
2022-10-08T19:56:37.424Z,20.08
2022-10-08T19:59:04.917Z,20.10
2022-10-08T20:01:34.133Z,16.98
2022-10-08T20:04:02.730Z,21.83
2022-10-08T20:06:32.129Z,23.35
2022-10-08T20:09:01.560Z,18.83
2022-10-08T20:11:30.166Z,19.42
2022-10-08T20:13:57.575Z,24.95
2022-10-08T20:16:35.827Z,22.88
2022-10-08T20:19:08.641Z,24.52
2022-10-08T20:21:37.412Z,24.17
2022-10-08T20:24:04.896Z,21.52
2022-10-08T20:26:33.736Z,21.65
2022-10-08T20:29:03.076Z,23.02
2022-10-08T20:31:31.719Z,21.05
2022-10-08T20:34:11.710Z,20.02
2022-10-08T20:36:38.400Z,25.77
2022-10-08T20:39:05.429Z,24.92
2022-10-08T20:41:32.834Z,20.95
2022-10-08T20:44:02.237Z,19.70
2022-10-08T20:46:29.958Z,19.20
2022-10-08T20:48:57.074Z,18.73
2022-10-08T20:51:25.983Z,21.55
2022-10-08T20:54:00.912Z,24.15
2022-10-08T20:56:29.081Z,23.60
2022-10-08T20:58:55.777Z,21.45
2022-10-08T21:01:25.203Z,19.70
2022-10-08T21:03:53.199Z,25.65
2022-10-08T21:06:22.471Z,19.35
2022-10-08T21:08:51.182Z,21.30
2022-10-08T21:11:20.837Z,20.10
2022-10-08T21:13:47.928Z,22.50
2022-10-08T21:16:25.000Z,27.45
2022-10-08T21:18:53.998Z,22.95
2022-10-08T21:21:20.845Z,22.08
2022-10-08T21:23:51.402Z,20.23
2022-10-08T21:26:29.832Z,23.27
2022-10-08T21:28:58.565Z,19.75
2022-10-08T21:31:27.578Z,21.38
2022-10-08T21:33:55.146Z,22.63
2022-10-08T21:36:24.883Z,24.58
2022-10-08T21:38:51.871Z,25.17
2022-10-08T21:41:20.618Z,27.10
2022-10-08T21:43:56.809Z,30.90
2022-10-08T21:46:25.344Z,32.75
2022-10-08T21:48:57.411Z,30.63
2022-10-08T21:51:24.781Z,31.30
2022-10-08T21:53:54.775Z,23.83
2022-10-08T21:56:24.289Z,24.55
2022-10-08T21:58:53.771Z,25.10
2022-10-08T22:01:25.506Z,26.55
2022-10-08T22:03:55.780Z,27.73
2022-10-08T22:06:23.444Z,32.70
2022-10-08T22:08:50.547Z,33.13
2022-10-08T22:11:17.553Z,26.52
2022-10-08T22:13:44.628Z,29.73
2022-10-08T22:16:13.492Z,24.05
2022-10-08T22:18:40.727Z,28.13
2022-10-08T22:21:11.083Z,32.15
2022-10-08T22:23:37.960Z,35.28
2022-10-08T22:26:10.876Z,28.98
2022-10-08T22:28:38.451Z,26.98
2022-10-08T22:31:07.407Z,25.05
2022-10-08T22:33:34.617Z,25.13
2022-10-08T22:36:29.198Z,30.20
2022-10-08T22:38:57.253Z,30.20
2022-10-08T22:41:26.419Z,24.83
2022-10-08T22:43:53.740Z,28.30
2022-10-08T22:46:23.456Z,29.13
2022-10-08T22:48:50.538Z,28.60
2022-10-08T22:51:22.367Z,28.27
2022-10-08T22:53:49.523Z,24.73
2022-10-08T22:56:19.953Z,19.38
2022-10-08T22:58:47.915Z,20.65
2022-10-08T23:01:17.374Z,21.08
2022-10-08T23:03:44.420Z,24.02
2022-10-08T23:06:11.274Z,19.02
2022-10-08T23:08:37.940Z,21.17
2022-10-08T23:11:05.328Z,20.80
2022-10-08T23:13:33.052Z,22.08
2022-10-08T23:16:06.349Z,20.10
2022-10-08T23:18:36.084Z,22.38
2022-10-08T23:21:04.544Z,21.60
2022-10-08T23:23:31.832Z,20.30
2022-10-08T23:26:01.412Z,19.88
2022-10-08T23:28:30.818Z,21.48
2022-10-08T23:31:08.600Z,23.35
2022-10-08T23:33:38.079Z,22.10
2022-10-08T23:36:06.887Z,20.88
2022-10-08T23:38:35.171Z,22.45
2022-10-08T23:41:04.233Z,23.02
2022-10-08T23:43:45.972Z,20.48
2022-10-08T23:46:15.140Z,22.63
2022-10-08T23:48:42.362Z,26.98
2022-10-08T23:51:10.725Z,23.02
2022-10-08T23:53:38.304Z,25.27
2022-10-08T23:56:05.964Z,30.83
2022-10-08T23:58:32.916Z,28.17
